Time;durP1;ratioP1;P1;durP2;ratioP2;P2;SDS_P1;SDS_P2;PMS_P1;PMS_P2;Temp;Humidity;BMP_temperature;BMP_pressure;BME280_temperature;BME280_humidity;BME280_pressure;Samples;Min_cycle;Max_cycle;Signal;HPM_P1;HPM_P2
2023/05/01 00:01:05;;;;;;;1.13;0.98;;;;;;;11.93;100.00;99719.03;4905251;29;20277;-76
2023/05/01 00:03:32;;;;;;;1.00;0.90;;;11.70;99.90;;;11.96;100.00;99729.59;4907809;29;20338;-76
2023/05/01 00:06:02;;;;;;;1.52;1.35;;;11.70;99.90;;;11.96;100.00;99737.56;4912968;29;20235;-77
2023/05/01 00:08:30;;;;;;;0.73;0.73;;;;;;;11.90;100.00;99732.31;4912231;29;20245;-77
2023/05/01 00:11:08;;;;;;;1.10;1.00;;;11.70;99.90;;;11.90;100.00;99744.66;4900973;29;20263;-77
2023/05/01 00:13:36;;;;;;;1.30;1.20;;;;;;;11.89;100.00;99746.44;4909442;29;20239;-77
2023/05/01 00:16:08;;;;;;;0.93;0.80;;;8.80;99.90;;;11.85;100.00;99752.66;4909169;29;20226;-76
2023/05/01 00:18:36;;;;;;;1.40;1.10;;;;;;;11.74;100.00;99760.63;4889630;29;20235;-77
2023/05/01 00:21:04;;;;;;;1.10;1.00;;;;;;;11.75;100.00;99757.09;4903047;29;20269;-77
2023/05/01 00:23:31;;;;;;;1.25;1.10;;;;;;;11.70;100.00;99757.97;4906168;29;20314;-77
2023/05/01 00:25:58;;;;;;;1.40;1.30;;;;;;;11.71;100.00;99770.38;4905703;29;20260;-77
2023/05/01 00:28:26;;;;;;;1.23;0.95;;;;;;;11.69;100.00;99774.78;4905500;29;20317;-78
2023/05/01 00:30:53;;;;;;;1.40;1.20;;;;;;;11.60;100.00;99774.81;4909425;29;20772;-76
2023/05/01 00:33:21;;;;;;;1.60;1.23;;;;;;;11.66;100.00;99788.03;4893813;29;20282;-77
2023/05/01 00:35:48;;;;;;;1.50;1.33;;;;;;;11.65;100.00;99791.56;4900320;29;20239;-77
2023/05/01 00:38:15;;;;;;;1.27;1.00;;;;;;;11.71;100.00;99788.91;4907920;29;20236;-77
2023/05/01 00:40:44;;;;;;;1.35;1.10;;;11.40;99.90;;;11.65;100.00;99783.63;4906083;29;20267;-77
2023/05/01 00:43:12;;;;;;;1.40;1.10;;;;;;;11.53;100.00;99777.50;4888474;29;20317;-77
2023/05/01 00:45:44;;;;;;;1.00;0.80;;;11.40;99.90;;;11.61;100.00;99798.66;4904795;29;20258;-76
2023/05/01 00:48:12;;;;;;;1.15;1.00;;;;;;;11.50;100.00;99792.53;4905933;29;20317;-77
2023/05/01 00:50:39;;;;;;;1.45;1.27;;;11.30;99.90;;;11.57;100.00;99806.63;4909459;29;20243;-77
2023/05/01 00:53:07;;;;;;;1.10;1.00;;;;;;;11.50;100.00;99805.75;4896573;29;20239;-76
2023/05/01 00:55:34;;;;;;;1.30;1.20;;;;;;;11.47;100.00;99808.44;4891383;29;20317;-77
2023/05/01 00:58:02;;;;;;;1.13;1.00;;;;;;;11.38;100.00;99808.47;4896431;29;20341;-76
2023/05/01 01:00:30;;;;;;;9.35;2.03;;;;;;;11.33;100.00;99810.25;4890965;29;20326;-77
2023/05/01 01:02:57;;;;;;;1.45;1.20;;;;;;;11.33;100.00;99815.56;4908701;29;20240;-76
2023/05/01 01:05:28;;;;;;;1.40;1.05;;;11.10;99.90;;;11.32;100.00;99817.31;4906498;29;20250;-75
2023/05/01 01:07:58;;;;;;;1.10;1.00;;;;;;;11.29;100.00;99827.91;4891906;29;20288;-76
2023/05/01 01:10:52;;;;;;;1.30;1.00;;;11.00;99.90;;;11.21;100.00;99840.28;4907393;29;20309;-75
2023/05/01 01:13:46;;;;;;;1.98;1.40;;;11.00;99.90;;;11.17;100.00;99835.91;4902559;29;20910;-76
2023/05/01 01:16:38;;;;;;;1.50;1.23;;;10.90;99.90;;;11.12;100.00;99835.91;4891842;29;20232;-76
2023/05/01 01:19:35;;;;;;;2.58;1.90;;;11.00;99.90;;;11.21;100.00;99862.34;4891668;29;20290;-75
2023/05/01 01:22:13;;;;;;;2.03;1.33;;;11.00;99.90;;;11.22;100.00;99855.28;4904713;29;20294;-76
2023/05/01 01:24:41;;;;;;;2.03;1.52;;;;;;;11.21;100.00;99848.22;4892098;29;20274;-75
2023/05/01 01:27:35;;;;;;;1.88;1.40;;;11.00;99.90;;;11.17;100.00;99844.72;4892151;29;20310;-75
2023/05/01 01:30:39;;;;;;;1.95;1.60;;;11.90;99.90;;;11.21;100.00;99846.47;4907063;29;20349;-76
2023/05/01 01:33:39;;;;;;;1.23;1.00;;;10.90;99.90;;;11.17;100.00;99847.38;4905609;29;20322;-75
2023/05/01 01:36:15;;;;;;;1.40;1.30;;;10.90;99.90;;;11.14;100.00;99847.38;4911015;29;20236;-76
2023/05/01 01:38:46;;;;;;;1.85;1.55;;;10.90;99.90;;;11.18;100.00;99854.41;4908781;29;20662;-75
2023/05/01 01:41:26;;;;;;;1.83;1.50;;;10.90;99.90;;;11.20;100.00;99851.75;4894600;29;20283;-75
2023/05/01 01:44:04;;;;;;;0.85;0.80;;;10.90;99.90;;;11.10;100.00;99850.91;4895960;29;20331;-75
2023/05/01 01:46:37;;;;;;;1.27;1.10;;;10.90;99.90;;;11.09;100.00;99857.09;4891469;29;25028;-76
2023/05/01 01:49:15;;;;;;;1.70;1.30;;;10.70;99.90;;;11.04;100.00;99860.63;4896017;29;20334;-75
2023/05/01 01:51:47;;;;;;;1.70;1.17;;;10.80;99.90;;;10.97;100.00;99865.06;4892036;29;20243;-75
2023/05/01 01:54:21;;;;;;;1.63;1.23;;;10.80;99.90;;;10.98;100.00;99872.09;4894780;29;20267;-75
2023/05/01 01:56:49;;;;;;;1.88;1.30;;;10.80;99.90;;;10.97;100.00;99866.81;4906510;29;20301;-75
2023/05/01 01:59:19;;;;;;;1.73;1.30;;;10.80;99.90;;;10.97;100.00;99875.63;4884627;29;20239;-75
2023/05/01 02:01:47;;;;;;;2.00;1.48;;;;;;;10.84;100.00;99873.88;4905960;29;20326;-74
2023/05/01 02:04:15;;;;;;;1.70;1.30;;;10.60;99.90;;;10.79;100.00;99880.94;4892860;29;20875;-75
2023/05/01 02:06:45;;;;;;;2.45;1.83;;;10.60;99.90;;;10.81;100.00;99888.00;4908735;29;20242;-75
2023/05/01 02:09:18;;;;;;;1.70;1.20;;;10.60;99.90;;;10.81;100.00;99895.94;4886940;29;20236;-76
2023/05/01 02:11:47;;;;;;;1.65;1.20;;;10.60;99.90;;;10.72;100.00;99895.06;4875099;29;20259;-76
2023/05/01 02:14:15;;;;;;;1.50;1.13;;;;;;;10.68;100.00;99902.09;4894643;29;20611;-77
2023/05/01 02:16:43;;;;;;;1.77;1.17;;;10.50;99.90;;;10.67;100.00;99900.34;4898780;29;20251;-76
2023/05/01 02:19:13;;;;;;;2.03;1.42;;;10.40;99.90;;;10.68;100.00;99899.47;4895430;29;20243;-77
2023/05/01 02:21:41;;;;;;;2.03;1.42;;;10.40;99.90;;;10.60;100.00;99900.34;4881209;29;20294;-77
2023/05/01 02:24:11;;;;;;;2.35;1.48;;;10.40;99.90;;;10.68;100.00;99906.50;4899792;29;20262;-76
2023/05/01 02:26:45;;;;;;;1.95;1.30;;;10.40;99.90;;;10.59;100.00;99915.31;4888823;29;20252;-76
2023/05/01 02:29:12;;;;;;;2.33;1.58;;;;;;;10.60;100.00;99926.78;4911060;29;20712;-76
2023/05/01 02:31:40;;;;;;;1.35;1.00;;;10.30;99.90;;;10.56;100.00;99934.72;4913099;29;20330;-76
2023/05/01 02:34:07;;;;;;;1.30;1.00;;;;;;;10.54;100.00;99925.00;4890942;29;20239;-77
2023/05/01 02:36:34;;;;;;;1.50;1.23;;;;;;;10.52;100.00;99925.00;4904287;29;20330;-78
2023/05/01 02:39:02;;;;;;;1.60;1.30;;;;;;;10.57;100.00;99928.53;4913988;29;20282;-76
2023/05/01 02:41:29;;;;;;;1.20;0.90;;;;;;;10.56;100.00;99915.31;4911996;29;20227;-76
2023/05/01 02:44:03;;;;;;;1.30;1.10;;;10.30;99.90;;;10.52;100.00;99910.91;4892613;29;20257;-76
2023/05/01 02:46:34;;;;;;;1.98;1.40;;;10.40;99.90;;;10.59;100.00;99910.03;4910110;29;20299;-76
2023/05/01 02:49:03;;;;;;;1.30;1.02;;;10.40;99.90;;;10.57;100.00;99899.47;4891718;29;20243;-77
2023/05/01 02:51:30;;;;;;;1.33;1.00;;;;;;;10.55;100.00;99900.34;4894214;29;20692;-76
2023/05/01 02:53:58;;;;;;;1.65;1.27;;;10.30;99.90;;;10.48;100.00;99904.75;4906156;29;20263;-75
2023/05/01 02:56:26;;;;;;;1.10;1.00;;;;;;;10.47;100.00;99908.25;4890195;29;20243;-75
2023/05/01 02:58:54;;;;;;;1.45;1.10;;;;;;;10.55;100.00;99922.38;4894314;29;20235;-76
2023/05/01 03:01:22;;;;;;;1.90;1.42;;;;;;;10.43;100.00;99930.28;4903378;29;20235;-75
2023/05/01 03:03:50;;;;;;;1.50;1.40;;;;;;;10.41;100.00;99925.88;4911958;29;20289;-75
2023/05/01 03:06:18;;;;;;;1.10;1.00;;;;;;;10.39;100.00;99922.31;4889373;29;20234;-76
2023/05/01 03:08:46;;;;;;;1.20;1.02;;;;;;;10.43;100.00;99925.00;4912708;29;20269;-75
2023/05/01 03:11:14;;;;;;;1.40;1.10;;;;;;;10.43;100.00;99930.28;4896895;29;20268;-75
2023/05/01 03:13:42;;;;;;;1.33;1.10;;;;;;;10.47;100.00;99924.13;4877780;29;20234;-75
2023/05/01 03:16:09;;;;;;;1.33;1.08;;;;;;;10.59;100.00;99941.75;4912493;29;20235;-75
2023/05/01 03:18:37;;;;;;;1.15;0.95;;;;;;;10.44;100.00;99923.25;4907914;29;20243;-75
2023/05/01 03:21:04;;;;;;;1.20;1.05;;;;;;;10.44;100.00;99936.47;4912398;29;20692;-75
2023/05/01 03:23:32;;;;;;;1.52;1.23;;;;;;;10.47;100.00;99937.34;4906556;29;20598;-76
2023/05/01 03:25:59;;;;;;;1.38;1.20;;;;;;;10.46;100.00;99940.88;4901938;29;20294;-76
2023/05/01 03:28:27;;;;;;;1.92;1.40;;;;;;;10.46;100.00;99937.34;4910892;29;20235;-76
2023/05/01 03:30:54;;;;;;;2.40;2.05;;;;;;;10.48;100.00;99940.88;4902056;29;20651;-75
2023/05/01 03:33:22;;;;;;;1.50;1.40;;;;;;;10.49;100.00;99942.63;4904492;29;20320;-76
2023/05/01 03:36:02;;;;;;;1.25;1.05;;;10.30;99.90;;;10.46;100.00;99934.69;4908422;29;20239;-75
2023/05/01 03:38:30;;;;;;;2.38;2.10;;;10.30;99.90;;;10.49;100.00;99942.63;4904965;29;20714;-74
2023/05/01 03:40:58;;;;;;;2.60;2.28;;;;;;;10.51;100.00;99951.44;4900937;29;20753;-75
2023/05/01 03:43:26;;;;;;;1.60;1.25;;;;;;;10.48;100.00;99954.97;4901294;29;20236;-75
2023/05/01 03:45:53;;;;;;;1.10;1.00;;;;;;;10.53;100.00;99955.84;4909316;29;20254;-75
2023/05/01 03:48:21;;;;;;;1.35;1.20;;;10.30;99.90;;;10.52;100.00;99953.22;4908185;29;20302;-77
2023/05/01 03:50:48;;;;;;;1.67;1.27;;;;;;;10.54;100.00;99956.75;4897533;29;20244;-76
2023/05/01 03:53:16;;;;;;;1.38;1.10;;;;;;;10.53;100.00;99945.28;4900976;29;20331;-77
2023/05/01 03:55:43;;;;;;;1.35;1.02;;;;;;;10.56;100.00;99953.22;4895594;29;20688;-78
2023/05/01 03:58:11;;;;;;;1.30;1.10;;;;;;;10.58;100.00;99955.88;4897086;29;20295;-76
2023/05/01 04:00:38;;;;;;;1.50;1.40;;;;;;;10.50;100.00;99953.22;4897130;29;20232;-76
2023/05/01 04:03:06;;;;;;;1.27;1.02;;;;;;;10.59;100.00;99968.22;4912780;29;20266;-76
2023/05/01 04:05:34;;;;;;;1.30;1.00;;;;;;;10.63;100.00;99972.63;4906420;29;20238;-76
2023/05/01 04:08:03;;;;;;;1.10;1.00;;;;;;;10.69;100.00;99969.97;4875109;29;20243;-76
2023/05/01 04:10:30;;;;;;;1.33;1.23;;;;;;;10.71;100.00;99955.00;4901435;29;20244;-76
2023/05/01 04:12:58;;;;;;;1.35;1.23;;;;;;;10.70;100.00;99945.31;4910946;29;20239;-76
2023/05/01 04:15:25;;;;;;;1.58;1.27;;;;;;;10.70;100.00;99936.47;4904145;29;20323;-76
2023/05/01 04:17:54;;;;;;;1.15;1.00;;;;;;;10.80;100.00;99927.66;4906656;29;20238;-75
2023/05/01 04:20:22;;;;;;;2.25;1.77;;;;;;;10.81;100.00;99927.66;4910769;29;20609;-76
2023/05/01 04:22:49;;;;;;;1.13;1.00;;;;;;;10.89;100.00;99928.56;4906784;29;20245;-76
2023/05/01 04:25:17;;;;;;;1.08;0.98;;;;;;;10.89;100.00;99920.63;4912943;29;20282;-75
2023/05/01 04:27:44;;;;;;;1.50;1.20;;;;;;;10.82;100.00;99910.91;4891427;29;20235;-76
2023/05/01 04:30:12;;;;;;;1.23;1.13;;;;;;;10.79;100.00;99920.63;4893485;29;20243;-76
2023/05/01 04:32:39;;;;;;;1.10;1.00;;;;;;;10.82;100.00;99924.16;4905056;29;20298;-76
2023/05/01 04:35:07;;;;;;;1.70;1.60;;;10.60;99.90;;;10.80;100.00;99915.31;4896640;29;20246;-75
2023/05/01 04:37:35;;;;;;;1.33;1.10;;;;;;;10.84;100.00;99916.22;4905691;29;20247;-76
2023/05/01 04:40:03;;;;;;;1.40;1.30;;;10.50;99.90;;;10.77;100.00;99910.03;4908136;29;20580;-76
2023/05/01 04:42:31;;;;;;;1.30;0.95;;;10.60;99.90;;;10.77;100.00;99927.66;4881468;29;20246;-76
2023/05/01 04:45:03;;;;;;;1.35;1.17;;;;;;;10.74;100.00;99936.47;4913576;29;20230;-76
2023/05/01 04:47:30;;;;;;;1.10;0.90;;;;;;;10.72;100.00;99951.47;4901774;29;20235;-76
2023/05/01 04:49:58;;;;;;;1.20;0.90;;;;;;;10.67;100.00;99958.53;4913717;29;20266;-76
2023/05/01 04:52:25;;;;;;;2.03;1.83;;;;;;;10.68;100.00;99965.56;4909860;29;20322;-76
2023/05/01 04:54:53;;;;;;;1.10;1.00;;;;;;;10.67;100.00;99971.75;4907945;29;20240;-76
2023/05/01 04:57:20;;;;;;;1.23;1.00;;;;;;;10.68;100.00;99989.38;4910779;29;20318;-76
2023/05/01 04:59:47;;;;;;;1.13;1.00;;;;;;;10.72;100.00;100004.38;4909765;29;20299;-75
2023/05/01 05:02:15;;;;;;;2.35;1.70;;;;;;;10.76;100.00;100008.78;4912141;29;20247;-75
2023/05/01 05:04:42;;;;;;;1.08;0.90;;;10.80;99.90;;;10.78;100.00;100022.00;4904413;29;20244;-75
2023/05/01 05:07:10;;;;;;;2.03;1.77;;;;;;;10.83;100.00;100050.22;4908107;29;20262;-78
2023/05/01 05:09:37;;;;;;;1.10;1.00;;;;;;;10.82;100.00;100048.47;4906316;29;20235;-78
2023/05/01 05:12:04;;;;;;;1.38;1.13;;;;;;;10.89;100.00;100054.66;4910290;29;20257;-77
2023/05/01 05:14:32;;;;;;;1.23;1.10;;;;;;;10.89;100.00;100060.81;4915815;29;20266;-78
2023/05/01 05:16:59;;;;;;;1.20;1.00;;;;;;;10.84;100.00;100061.69;4908354;29;20409;-78
2023/05/01 05:19:27;;;;;;;1.40;1.20;;;;;;;10.84;100.00;100064.34;4911935;29;20246;-77
2023/05/01 05:21:54;;;;;;;1.73;1.50;;;;;;;10.88;100.00;100072.28;4914559;29;20278;-77
2023/05/01 05:24:22;;;;;;;1.38;1.15;;;;;;;10.92;100.00;100083.75;4915616;29;20257;-79
2023/05/01 05:26:50;;;;;;;1.40;1.30;;;;;;;11.05;100.00;100079.34;4915903;29;20258;-77
2023/05/01 05:29:17;;;;;;;1.38;1.15;;;;;;;11.01;100.00;100064.38;4916303;29;20270;-78
2023/05/01 05:31:46;;;;;;;1.48;1.30;;;;;;;11.02;100.00;100051.13;4904036;29;20239;-78
2023/05/01 05:34:13;;;;;;;1.50;1.40;;;10.80;99.90;;;11.04;100.00;100038.78;4918749;29;20269;-78
2023/05/01 05:36:41;;;;;;;1.10;0.90;;;;;;;11.16;100.00;100041.44;4922788;29;20266;-79
2023/05/01 05:39:09;;;;;;;1.15;1.00;;;;;;;11.12;100.00;100021.16;4891554;29;20235;-79
2023/05/01 05:41:36;;;;;;;1.23;1.00;;;;;;;11.16;100.00;100020.28;4925164;24;20337;-79
2023/05/01 05:44:04;;;;;;;1.23;1.00;;;;;;;11.28;100.00;100043.22;4931071;29;20289;-78
2023/05/01 05:46:31;;;;;;;1.45;1.05;;;;;;;11.27;100.00;100038.78;4931709;29;20314;-79
2023/05/01 05:48:59;;;;;;;1.90;1.50;;;;;;;11.28;100.00;100032.63;4926866;29;20237;-78
2023/05/01 05:51:26;;;;;;;1.00;0.90;;;;;;;11.32;100.00;100038.78;4927812;29;20254;-78
2023/05/01 05:53:54;;;;;;;1.08;0.98;;;;;;;11.29;100.00;100037.03;4926514;29;20234;-77
2023/05/01 05:56:23;;;;;;;1.30;1.20;;;;;;;11.41;100.00;100046.72;4925549;29;20266;-76
2023/05/01 05:58:50;;;;;;;2.05;1.33;;;;;;;11.48;100.00;100059.09;4928803;29;20254;-75
2023/05/01 06:01:18;;;;;;;1.17;1.00;;;;;;;11.50;100.00;100067.91;4929782;29;20305;-82
2023/05/01 06:03:45;;;;;;;1.48;1.27;;;;;;;11.55;100.00;100063.50;4924199;29;20317;-78
2023/05/01 06:06:13;;;;;;;1.10;1.00;;;;;;;11.63;100.00;100067.00;4903129;29;20231;-77
2023/05/01 06:08:40;;;;;;;1.17;1.00;;;;;;;11.70;100.00;100065.25;4906992;29;20304;-77
2023/05/01 06:11:08;;;;;;;0.90;0.80;;;;;;;11.58;100.00;100044.06;4921276;29;20339;-74
2023/05/01 06:13:36;;;;;;;1.38;1.00;;;;;;;11.63;100.00;100048.47;4930991;29;20305;-74
2023/05/01 06:16:04;;;;;;;1.33;1.23;;;11.40;99.90;;;11.61;100.00;100031.69;4931161;29;20261;-76
2023/05/01 06:18:31;;;;;;;1.58;1.20;;;;;;;11.80;100.00;100045.84;4912112;29;20242;-77
2023/05/01 06:20:59;;;;;;;1.35;1.02;;;;;;;11.89;100.00;100039.66;4931136;29;20258;-77
2023/05/01 06:23:27;;;;;;;1.25;1.10;;;;;;;11.86;100.00;100027.28;4902230;29;20336;-78
2023/05/01 06:25:54;;;;;;;1.38;1.10;;;;;;;11.92;100.00;100032.56;4927661;29;20325;-77
2023/05/01 06:28:25;;;;;;;1.40;1.10;;;;;;;11.99;100.00;100041.41;4915940;29;20620;-76
2023/05/01 06:30:53;;;;;;;0.70;0.70;;;;;;;12.10;100.00;100040.47;4923601;29;20695;-78
2023/05/01 06:33:20;;;;;;;1.17;1.00;;;;;;;12.17;100.00;100049.28;4931733;29;20325;-76
2023/05/01 06:35:48;;;;;;;0.85;0.80;;;;;;;12.15;100.00;100027.19;4912311;29;20238;-81
2023/05/01 06:38:15;;;;;;;1.30;1.13;;;;;;;12.39;100.00;100037.69;4913975;29;20652;-76
2023/05/01 06:40:45;;;;;;;0.88;0.77;;;;;;;12.23;100.00;100020.09;4910375;29;20322;-77
2023/05/01 06:43:13;;;;;;;0.80;0.70;;;;;;;12.53;100.00;100042.94;4912423;29;20289;-77
2023/05/01 06:45:41;;;;;;;0.75;0.75;;;;;;;12.47;100.00;100013.78;4915994;29;20234;-76
2023/05/01 06:48:08;;;;;;;1.13;0.93;;;;;;;12.86;100.00;100046.28;4929362;29;20242;-76
2023/05/01 06:50:36;;;;;;;1.73;1.10;;;;;;;13.23;100.00;100053.16;4910083;29;20340;-77
2023/05/01 06:53:03;;;;;;;0.90;0.75;;;;;;;13.17;100.00;100018.69;4908948;29;20238;-76
2023/05/01 06:55:32;;;;;;;0.93;0.82;;;;;;;13.25;100.00;99982.31;4933572;29;20242;-76
2023/05/01 06:58:03;;;;;;;1.13;1.00;;;;;;;13.54;100.00;99968.75;4926804;29;20238;-76
2023/05/01 07:00:49;;;;;;;0.90;0.80;;;;;;;13.69;100.00;99952.66;4929253;29;20230;-76
2023/05/01 07:03:17;;;;;;;1.08;0.98;;;;;;;13.80;100.00;99925.94;4913958;29;20259;-76
2023/05/01 07:05:44;;;;;;;0.93;0.80;;;;;;;14.03;100.00;99941.59;4932110;29;20782;-79
2023/05/01 07:08:13;;;;;;;1.02;0.90;;;;;;;14.13;100.00;99937.06;4928631;29;20321;-76
2023/05/01 07:10:40;;;;;;;0.95;0.80;;;;;;;14.25;100.00;99907.63;4926416;29;20291;-77
2023/05/01 07:13:08;;;;;;;0.88;0.77;;;;;;;14.13;100.00;99900.72;4911696;29;20330;-77
2023/05/01 07:15:36;;;;;;;1.05;0.90;;;13.90;99.90;;;14.00;100.00;99883.16;4932062;29;20278;-77
2023/05/01 07:18:06;;;;;;;0.80;0.80;;;13.90;99.90;;;14.04;100.00;99892.84;4910746;29;20310;-77
2023/05/01 07:20:34;;;;;;;1.63;1.25;;;;;;;14.08;100.00;99874.19;4922950;29;20341;-77
2023/05/01 07:23:02;;;;;;;1.08;0.90;;;;;;;14.01;100.00;99871.63;4929841;29;20245;-78
2023/05/01 07:25:33;;;;;;;1.30;1.00;;;14.00;99.90;;;14.24;100.00;99865.97;4929601;29;20535;-77
2023/05/01 07:28:03;;;;;;;1.40;1.05;;;;;;;14.31;100.00;99883.63;4930087;29;20234;-77
2023/05/01 07:30:32;;;;;;;1.35;0.95;;;;;;;14.47;100.00;99890.50;4924495;29;20712;-79
2023/05/01 07:32:59;;;;;;;1.75;1.13;;;;;;;14.71;100.00;99874.16;4925129;29;20235;-76
2023/05/01 07:35:27;;;;;;;2.00;1.27;;;;;;;14.57;100.00;99809.66;4920307;29;20235;-76
2023/05/01 07:37:54;;;;;;;1.48;0.98;;;;;;;14.57;100.00;99799.00;4932474;29;20245;-78
2023/05/01 07:40:22;;;;;;;1.23;0.93;;;;;;;14.51;100.00;99791.13;4924845;29;20247;-78
2023/05/01 07:42:49;;;;;;;1.33;0.98;;;;;;;14.60;100.00;99788.31;4897722;29;20330;-78
2023/05/01 07:45:20;;;;;;;0.82;0.80;;;;;;;14.86;100.00;99761.22;4933091;29;20258;-76
2023/05/01 07:47:48;;;;;;;1.25;0.98;;;;;;;14.81;100.00;99731.13;4929664;29;20301;-76
2023/05/01 07:50:16;;;;;;;2.03;1.10;;;;;;;14.95;100.00;99683.81;4921387;29;20287;-79
2023/05/01 07:52:44;;;;;;;1.40;1.00;;;;;;;14.94;100.00;99623.50;4928256;29;20290;-80
2023/05/01 07:55:14;;;;;;;1.27;1.00;;;;;;;15.15;100.00;99627.47;4926947;29;20285;-84
2023/05/01 07:57:42;;;;;;;0.95;0.77;;;;;;;15.32;100.00;99593.34;4917831;29;20242;-80
2023/05/01 08:00:10;;;;;;;1.48;1.00;;;;;;;15.32;100.00;99613.78;4933151;29;20694;-78
2023/05/01 08:02:37;;;;;;;1.25;0.90;;;;;;;15.43;100.00;99614.41;4914315;29;20242;-77
2023/05/01 08:05:05;;;;;;;1.15;0.80;;;15.20;99.90;;;15.34;100.00;99595.97;4927513;29;20234;-79
2023/05/01 08:07:32;;;;;;;1.33;1.00;;;;;;;15.40;100.00;99577.16;4912191;29;20234;-78
2023/05/01 08:10:00;;;;;;;1.65;1.13;;;;;;;15.46;100.00;99587.69;4929534;29;20574;-76
2023/05/01 08:12:30;;;;;;;1.08;0.70;;;;;;;15.56;100.00;99598.97;4924759;29;20298;-76
2023/05/01 08:14:57;;;;;;;1.30;1.10;;;;;;;15.16;100.00;99482.75;4926473;29;20237;-78
2023/05/01 08:17:25;;;;;;;1.10;0.95;;;;;;;15.33;100.00;99499.19;4926966;29;20262;-76
2023/05/01 08:19:55;;;;;;;0.90;0.77;;;;;;;15.24;100.00;99507.41;4909520;29;20234;-77
2023/05/01 08:22:23;;;;;;;1.73;1.17;;;;;;;15.28;100.00;99489.56;4928015;29;20245;-76
2023/05/01 08:24:51;;;;;;;1.42;0.95;;;;;;;15.43;100.00;99513.16;4923972;29;20234;-77
2023/05/01 08:27:18;;;;;;;1.20;1.10;;;;;;;15.62;100.00;99527.81;4926130;29;20289;-78
2023/05/01 08:29:46;;;;;;;0.65;0.47;;;;;;;15.53;100.00;99489.81;4896416;29;20743;-78
2023/05/01 08:32:14;;;;;;;1.33;0.98;;;15.70;99.90;;;15.82;100.00;99518.41;4927110;29;20234;-83
2023/05/01 08:34:42;;;;;;;1.05;0.93;;;;;;;15.88;100.00;99486.25;4881433;29;20243;-78
2023/05/01 08:37:09;;;;;;;1.63;1.02;;;;;;;16.46;100.00;99525.47;4923025;29;20234;-81
2023/05/01 08:39:40;;;;;;;1.52;0.95;;;;;;;16.41;100.00;99436.69;4930560;29;20391;-77
2023/05/01 08:42:07;;;;;;;1.60;1.27;;;;;;;16.43;100.00;99445.53;4926123;29;20250;-75
2023/05/01 08:44:40;;;;;;;0.88;0.80;;;16.20;99.90;;;16.34;100.00;99395.09;4926619;29;20702;-77
2023/05/01 08:47:16;;;;;;;1.33;0.93;;;16.20;99.90;;;16.18;100.00;99351.16;4925625;29;20426;-77
2023/05/01 08:49:44;;;;;;;1.65;1.45;;;15.90;99.90;;;15.93;100.00;99317.25;4924619;29;20268;-76
2023/05/01 08:52:14;;;;;;;1.45;1.15;;;16.00;99.90;;;16.20;100.00;99355.53;4928720;29;20313;-77
2023/05/01 08:54:46;;;;;;;2.03;1.40;;;16.20;99.90;;;16.20;100.00;99333.31;4925839;29;20238;-76
2023/05/01 08:57:13;;;;;;;1.25;0.90;;;;;;;15.92;100.00;99288.84;4914835;29;20300;-78
2023/05/01 08:59:41;;;;;;;2.20;1.65;;;;;;;16.39;100.00;99354.94;4910763;29;20235;-75
2023/05/01 09:02:11;;;;;;;1.75;1.02;;;16.30;99.90;;;16.19;100.00;99343.09;4907174;29;20265;-76
2023/05/01 09:04:40;;;;;;;1.95;1.55;;;16.20;99.90;;;16.35;100.00;99351.50;4914048;29;20242;-76
2023/05/01 09:07:11;;;;;;;2.35;1.55;;;18.10;99.90;;;16.55;100.00;99361.53;4924962;29;20245;-77
2023/05/01 09:09:39;;;;;;;2.58;1.58;;;;;;;17.18;100.00;99384.41;4913225;29;20250;-76
2023/05/01 09:12:25;;;;;;;4.10;1.70;;;16.90;99.90;;;16.70;100.00;99280.09;4923433;29;20249;-77
2023/05/01 09:14:55;;;;;;;1.58;1.48;;;16.80;99.90;;;16.79;100.00;99304.69;4923981;29;20229;-75
2023/05/01 09:17:23;;;;;;;1.65;0.98;;;17.10;99.90;;;16.93;100.00;99310.47;4927050;29;20242;-76
2023/05/01 09:19:52;;;;;;;0.90;0.85;;;17.20;99.90;;;17.16;100.00;99323.00;4929027;29;20320;-76
2023/05/01 09:22:22;;;;;;;2.03;0.90;;;17.20;99.90;;;16.98;100.00;99267.56;4910092;29;20238;-76
2023/05/01 09:24:50;;;;;;;1.60;1.42;;;;;;;17.51;100.00;99267.41;4894077;29;20233;-84
2023/05/01 09:27:18;;;;;;;1.63;0.85;;;17.50;99.90;;;17.60;100.00;99243.88;4924055;29;20242;-79
2023/05/01 09:29:52;;;;;;;1.30;0.75;;;17.50;99.90;;;17.64;100.00;99215.22;4913666;29;20293;-83
2023/05/01 09:32:29;;;;;;;6.03;2.03;;;17.60;99.90;;;17.74;100.00;99171.16;4926022;29;20252;-80
2023/05/01 09:35:20;;;;;;;1.70;1.00;;;17.40;99.90;;;17.15;100.00;99071.97;4898864;29;20240;-82
2023/05/01 09:37:49;;;;;;;2.47;1.25;;;17.90;99.90;;;18.20;100.00;99198.72;4917783;29;20270;-80
2023/05/01 09:40:26;;;;;;;1.50;1.30;;;18.80;99.90;;;18.52;100.00;99214.31;4917884;29;20290;-80
2023/05/01 09:42:55;;;;;;;0.70;0.68;;;;;;;18.25;100.00;99033.50;4972316;24;20231;-78
2023/05/01 09:45:23;;;;;;;1.05;0.90;;;;;;;18.03;100.00;99044.25;4924550;29;20755;-78
2023/05/01 09:47:50;;;;;;;1.90;1.20;;;;;;;18.53;100.00;99068.81;4925944;29;20238;-78
2023/05/01 09:50:32;;;;;;;1.95;1.25;;;18.50;99.90;;;18.41;100.00;98974.81;4930995;29;20233;-78
2023/05/01 09:53:05;;;;;;;1.85;1.38;;;18.60;99.90;;;18.51;100.00;99037.69;4932231;29;20320;-78
2023/05/01 09:55:33;;;;;;;1.55;1.00;;;18.20;99.90;;;17.85;100.00;98888.16;4922124;29;20231;-77
2023/05/01 09:58:01;;;;;;;1.08;0.80;;;;;;;18.27;100.00;98884.47;4930769;29;20237;-76
2023/05/01 10:00:29;;;;;;;0.88;0.77;;;;;;;17.98;100.00;98856.38;4923767;29;20233;-76
2023/05/01 10:02:56;;;;;;;1.08;0.88;;;;;;;18.77;100.00;98980.28;4921926;29;20707;-76
2023/05/01 10:05:25;;;;;;;1.30;1.00;;;;;;;19.14;100.00;98984.75;4923413;29;20241;-76
2023/05/01 10:07:59;;;;;;;1.48;1.38;;;19.10;99.90;;;18.97;100.00;98942.69;4929406;29;20329;-76
2023/05/01 10:10:27;;;;;;;1.25;0.90;;;18.70;99.90;;;18.60;100.00;98828.44;4905783;29;20238;-75
2023/05/01 10:12:55;;;;;;;1.00;0.90;;;;;;;18.34;100.00;98780.69;4930496;29;20248;-75
2023/05/01 10:15:22;;;;;;;1.25;0.90;;;;;;;18.62;100.00;98845.34;4927717;29;20261;-75
2023/05/01 10:17:53;;;;;;;1.25;0.85;;;;;;;18.91;100.00;98861.78;4889867;29;20258;-75
2023/05/01 10:20:21;;;;;;;1.42;1.17;;;;;;;19.13;100.00;98926.75;4922633;29;20237;-75
2023/05/01 10:22:49;;;;;;;1.13;0.88;;;;;;;19.12;100.00;98890.16;4933587;29;20245;-75
2023/05/01 10:25:17;;;;;;;1.75;1.10;;;19.50;99.90;;;19.55;100.00;98945.22;4922925;29;20229;-77
2023/05/01 10:27:44;;;;;;;1.00;0.80;;;;;;;19.21;100.00;98841.47;4915877;29;20234;-77
2023/05/01 10:30:12;;;;;;;0.75;0.70;;;;;;;19.11;100.00;98768.72;4915817;29;20293;-77
2023/05/01 10:32:41;;;;;;;0.75;0.65;;;19.20;99.90;;;18.74;100.00;98726.06;4908114;29;20242;-77
2023/05/01 10:35:17;;;;;;;1.25;0.93;;;19.60;99.90;;;19.50;100.00;98858.72;4931330;29;20241;-77
2023/05/01 10:37:55;;;;;;;1.10;0.80;;;19.90;99.90;;;19.79;100.00;98897.47;4909385;29;20277;-78
2023/05/01 10:40:47;;;;;;;1.05;0.93;;;19.60;99.90;;;19.53;100.00;98839.00;4929891;29;20678;-78
2023/05/01 10:43:28;;;;;;;0.50;0.50;;;19.80;99.90;;;19.39;100.00;98748.50;4930445;29;20699;-78
2023/05/01 10:46:20;;;;;;;0.73;0.63;;;19.60;99.90;;;19.31;100.00;98796.31;4926461;29;20265;-78
2023/05/01 10:48:50;;;;;;;0.80;0.60;;;19.40;99.90;;;19.13;100.00;98768.66;4917083;29;20234;-78
2023/05/01 10:51:20;;;;;;;0.60;0.60;;;19.30;99.90;;;19.08;100.00;98730.53;4929171;29;20373;-78
2023/05/01 10:54:09;;;;;;;0.70;0.70;;;19.70;99.90;;;19.90;100.00;98744.88;4928284;29;20246;-78
2023/05/01 10:56:36;;;;;;;0.98;0.80;;;;;;;20.40;100.00;98779.59;4925936;29;20304;-79
2023/05/01 10:59:04;;;;;;;1.20;0.80;;;;;;;20.35;100.00;98772.72;4930975;29;20237;-79
2023/05/01 11:01:44;;;;;;;0.63;0.63;;;20.20;99.90;;;20.19;100.00;98739.66;4931782;29;20234;-79
2023/05/01 11:04:20;;;;;;;0.90;0.85;;;20.50;99.90;;;20.40;100.00;98765.31;4907879;29;20243;-79
2023/05/01 11:07:07;;;;;;;0.75;0.70;;;20.30;99.90;;;20.55;100.00;98720.59;4929740;29;20305;-79
2023/05/01 11:09:40;;;;;;;1.10;0.90;;;20.90;99.90;;;21.04;100.00;98778.53;4927862;29;20247;-78